Date,TemperatureHighF,TemperatureAvgF,TemperatureLowF,DewpointHighF,DewpointAvgF,DewpointLowF,HumidityHigh,HumidityAvg,HumidityLow,PressureMaxIn,PressureMinIn,WindSpeedMaxMPH,WindSpeedAvgMPH,GustSpeedMaxMPH,PrecipitationSumIn
2013-1-1,58.1,47.5,33.4,36.8,19.5,3.1,83,43,12,30.13,30.00,22,6,0,0.00
2013-1-2,64.9,58.2,50.7,14.3,3.1,-0.3,23,11,8,30.04,29.90,22,10,0,0.00
2013-1-3,65.5,58.8,48.7,16.2,-9.6,-40.1,27,8,1,30.07,29.95,27,11,0,0.04
2013-1-4,68.9,53.6,38.3,26.6,2.4,-36.4,57,21,1,30.18,30.05,16,1,0,0.00
2013-1-5,66.9,49.2,33.1,37.7,24.7,3.3,69,46,8,30.19,30.07,0,0,0,0.00
2013-1-6,58.1,48.5,42.4,44.6,39.4,34.2,83,71,52,30.10,29.90,10,0,0,0.00
2013-1-7,67.5,55.9,44.2,36.8,29.2,12.7,70,40,15,30.02,29.88,16,1,0,0.00
2013-1-8,76.5,62.2,47.8,39.6,29.8,11.8,71,33,13,30.01,29.88,17,1,0,0.00
2013-1-9,70.5,55.5,44.2,47.1,39.7,36.6,83,59,29,30.03,29.88,0,0,0,0.00
2013-1-10,54.7,47.9,40.6,45.2,32.5,22.8,83,58,30,29.97,29.81,18,2,0,0.00
2013-1-11,53.6,44.0,33.4,25.9,23.4,19.8,68,45,31,30.08,29.94,17,2,0,0.00
2013-1-12,56.3,44.7,33.8,25.7,19.0,-4.2,64,40,8,30.05,29.94,18,1,0,0.00
2013-1-13,57.0,42.4,28.4,25.9,18.6,1.2,79,44,15,30.06,29.93,15,1,0,0.00
2013-1-14,51.8,43.8,37.0,1.5,-18.4,-47.7,20,9,1,30.23,30.06,20,9,0,0.01
2013-1-15,61.2,51.5,42.6,21.5,5.8,-9.9,36,16,10,30.35,30.20,16,3,0,0.00
2013-1-16,68.4,60.1,45.0,23.2,15.0,-0.2,41,19,7,30.26,30.03,29,9,0,0.06
2013-1-17,71.8,67.1,62.8,1.3,-19.6,-37.1,7,3,1,30.08,29.96,33,15,0,0.15
2013-1-18,72.1,65.6,57.0,3.5,-18.7,-37.3,11,4,1,30.06,29.94,24,9,0,0.00
2013-1-19,76.1,67.4,62.2,-5.7,-27.8,-38.4,6,1,2,30.08,29.98,22,7,0,0.00
2013-1-20,74.5,66.2,52.3,11.3,-23.9,-39.0,19,3,1,30.04,29.91,22,6,0,0.00
2013-1-21,78.1,70.3,52.0,12.2,-31.7,-40.2,20,1,4,29.99,29.88,20,8,0,0.00
2013-1-22,81.1,59.9,42.6,24.7,1.2,-35.7,38,17,1,30.02,29.90,0,0,0,0.00
2013-1-23,79.7,62.0,50.9,49.2,31.4,17.9,83,36,13,30.03,29.91,1,0,0,0.06
2013-1-24,62.2,56.8,50.5,56.0,42.1,16.6,83,62,19,30.10,29.99,0,0,0,0.97
2013-1-25,61.9,58.6,55.9,54.1,49.4,33.1,84,72,38,30.04,29.84,10,1,0,0.37
2013-1-26,73.0,62.0,54.5,55.7,51.3,36.6,83,69,50,29.87,29.74,12,0,0,0.03
2013-1-27,60.1,52.9,47.8,49.2,36.9,23.6,81,56,34,29.91,29.82,18,1,0,0.07
2013-1-28,58.3,50.5,46.2,31.1,28.5,26.0,52,43,30,30.07,29.91,14,3,0,0.00
2013-1-29,62.8,49.2,36.5,38.1,33.8,30.0,81,58,33,30.13,30.03,4,0,0,0.00
2013-1-30,74.8,53.6,38.3,43.2,35.4,23.6,81,54,23,30.25,30.09,8,0,0,0.00
2013-1-31,77.7,59.8,41.5,41.4,36.3,27.8,80,48,16,30.15,29.98,16,1,0,0.00
2013-2-1,78.6,60.3,43.5,44.2,39.3,28.1,77,50,17,30.07,29.98,1,0,0,0.00
2013-2-2,77.7,63.1,51.4,47.5,40.6,29.2,71,48,17,30.10,29.99,1,0,0,0.00
2013-2-3,78.1,64.9,49.5,48.0,43.0,29.7,70,47,22,30.04,29.87,5,0,0,0.00
2013-2-4,80.1,58.1,41.4,51.7,42.2,35.2,81,61,21,29.99,29.83,0,0,0,0.00
2013-2-5,62.2,53.0,45.1,50.7,19.5,-46.7,82,47,1,29.98,29.86,0,0,0,0.00
2013-2-6,68.4,54.2,44.1,49.6,23.4,-49.4,71,44,8,30.00,29.89,0,0,0,0.00
2013-2-7,63.1,51.2,42.1,48.4,16.5,-51.8,68,44,3,30.04,29.86,0,0,0,0.00
2013-2-8,55.2,45.7,38.8,39.4,18.6,-53.8,69,49,5,29.87,29.74,8,0,0,0.24
2013-2-9,59.0,46.2,35.8,38.2,6.8,-55.7,68,38,14,29.99,29.79,0,0,0,0.00
2013-2-10,57.0,46.3,37.2,42.0,18.0,-54.8,71,49,3,30.00,29.87,0,0,0,0.00
2013-2-11,62.4,49.1,35.6,32.5,16.0,-8.4,69,33,6,30.13,29.96,15,2,0,0.00
2013-2-12,69.6,48.8,32.0,33.9,24.7,-10.0,74,47,4,30.24,30.10,14,0,0,0.00
2013-2-13,79.5,54.0,36.0,42.8,31.0,6.5,73,50,6,30.16,30.00,2,0,0,0.00
2013-2-14,79.7,59.5,37.0,40.5,25.6,6.6,73,37,7,30.10,29.94,19,2,0,0.00
2013-2-15,78.4,69.5,50.2,34.7,7.6,-5.6,55,11,4,30.10,30.01,24,6,0,0.00
2013-2-16,89.8,64.3,44.6,32.3,5.9,-30.4,50,20,1,30.08,29.86,0,0,0,0.00
2013-2-17,79.3,57.7,39.6,46.7,32.3,17.1,72,44,10,29.91,29.79,0,0,0,0.00
2013-2-18,71.8,55.6,49.6,46.4,42.9,37.9,73,64,37,29.95,29.81,0,0,0,0.00
2013-2-19,52.9,49.1,42.4,44.1,39.1,22.3,74,69,42,29.86,29.59,1,0,0,0.22
2013-2-20,59.9,47.9,33.6,32.5,29.3,25.2,75,51,32,29.88,29.60,16,2,0,0.00
2013-2-21,63.7,49.1,32.9,41.8,30.0,8.8,75,53,12,29.99,29.85,6,0,0,0.00
2013-2-22,76.3,52.6,34.2,35.1,27.3,9.1,75,46,8,30.10,29.99,8,0,0,0.00
2013-2-23,75.6,54.7,35.8,46.8,33.0,27.3,75,47,21,30.05,29.79,29,1,0,0.00
2013-2-24,64.8,54.5,42.4,30.9,-3.3,-40.7,47,16,1,30.09,29.93,28,6,0,0.02
2013-2-25,77.7,53.4,34.3,31.2,13.3,-33.0,64,33,1,30.12,29.95,8,0,0,0.00
2013-2-26,73.0,62.9,39.4,31.3,4.2,-23.0,70,15,2,30.02,29.87,18,5,0,0.00
2013-2-27,71.6,62.2,46.8,16.0,-15.1,-36.3,28,6,1,30.17,30.02,27,7,0,0.00
2013-2-28,78.6,68.1,58.8,7.8,-23.9,-39.6,9,2,1,30.21,30.12,18,5,0,0.00
2013-3-1,87.1,71.9,53.6,32.8,-6.6,-30.9,45,8,1,30.20,30.02,25,4,0,0.00
2013-3-2,93.2,67.4,47.1,36.4,17.5,-25.3,56,26,1,30.12,29.94,4,0,0,0.00
2013-3-3,77.5,62.2,49.6,48.1,39.8,28.2,75,46,22,30.00,29.83,4,0,0,0.00
2013-3-4,77.4,59.8,48.7,53.2,43.9,10.5,75,58,19,29.97,29.87,0,0,0,0.00
2013-3-5,71.4,54.8,46.0,53.1,42.7,24.6,76,65,38,30.00,29.88,4,0,0,0.00
2013-3-6,62.1,53.0,43.7,48.0,43.1,30.4,76,69,55,30.04,29.89,0,0,0,0.00
2013-3-7,59.7,52.3,49.1,45.5,34.2,24.6,76,51,36,29.89,29.79,4,0,0,0.03
2013-3-10,55.4,52.4,50.2,36.0,35.2,34.3,56,52,48,30.07,30.07,0,0,0,0.00
2013-3-11,85.8,61.7,40.3,39.0,24.1,-29.0,74,40,1,30.08,29.89,2,0,0,0.00
2013-3-12,92.5,67.1,43.3,43.4,26.7,-24.8,77,39,1,29.98,29.87,1,0,0,0.00
2013-3-13,100.8,77.8,49.1,46.3,23.4,-19.6,68,24,1,30.02,29.86,4,0,0,0.00
2013-3-14,101.5,71.5,48.7,46.8,33.0,-18.3,72,36,1,30.00,29.86,7,0,0,0.00
2013-3-15,90.3,68.9,51.3,51.1,44.0,35.6,75,47,15,29.92,29.77,0,0,0,0.00
2013-3-16,87.8,64.0,48.7,54.3,39.5,-43.4,75,49,1,29.85,29.72,1,0,0,0.00
2013-3-17,86.2,65.8,50.9,52.6,38.5,2.5,70,41,4,29.86,29.78,11,0,0,0.00
2013-3-18,78.6,59.5,49.5,53.6,45.6,29.0,75,61,37,29.96,29.86,0,0,0,0.00
2013-3-19,86.2,61.9,48.7,54.0,38.0,-43.5,73,47,1,30.01,29.91,8,0,0,0.00
2013-3-20,81.7,63.5,51.6,53.8,46.8,34.6,75,56,34,29.98,29.83,4,0,0,0.00
2013-3-21,85.6,67.8,52.7,53.0,45.5,28.3,75,47,26,29.84,29.66,13,1,0,0.00
2013-3-22,87.4,66.7,52.7,46.9,25.8,-26.8,65,26,4,29.79,29.67,18,2,0,0.00
2013-3-23,86.0,63.9,44.1,51.6,34.3,-28.8,77,42,5,29.90,29.77,7,0,0,0.00
2013-3-24,88.7,65.4,47.8,53.1,40.4,12.2,78,48,6,29.91,29.73,4,0,0,0.00
2013-3-25,87.6,63.9,45.0,52.0,43.6,30.3,79,53,15,29.86,29.72,1,0,0,0.00
2013-3-26,81.7,62.2,45.5,52.3,45.8,37.7,79,60,24,29.85,29.75,0,0,0,0.00
2013-3-27,80.6,59.8,48.4,53.1,47.7,38.8,81,66,37,29.92,29.81,3,0,0,0.00
2013-3-28,84.0,62.4,49.5,55.6,48.3,36.7,81,62,31,29.95,29.87,5,0,0,0.00
2013-3-29,89.8,64.9,47.1,55.9,48.3,39.4,81,60,21,30.01,29.85,7,0,0,0.00
2013-3-30,85.5,65.2,52.3,55.0,47.1,36.6,81,56,23,30.01,29.89,8,0,0,0.00
2013-3-31,67.8,59.9,54.9,56.5,51.9,45.2,81,75,62,30.01,29.91,3,0,0,0.00
2013-4-1,73.4,59.1,50.0,52.5,48.9,44.4,84,71,43,30.05,29.93,10,0,0,0.00
2013-4-2,82.8,62.0,48.4,53.8,47.9,38.7,83,63,32,30.00,29.85,3,0,0,0.00
2013-4-3,92.3,66.8,48.9,54.8,47.5,30.0,84,58,14,29.98,29.82,9,0,0,0.00
2013-4-4,80.8,62.8,54.1,56.2,51.9,47.4,85,70,38,30.00,29.85,10,0,0,0.00
2013-4-5,78.6,64.3,53.2,57.3,52.2,46.4,83,67,36,29.97,29.84,7,0,0,0.00
2013-4-6,83.8,65.4,53.1,55.4,49.6,40.8,82,59,30,29.96,29.78,4,0,0,0.00
2013-4-7,88.0,69.5,54.3,56.4,47.6,34.5,82,50,18,29.83,29.66,18,2,0,0.00
2013-4-8,69.8,59.5,51.3,51.5,41.1,30.9,84,55,27,29.72,29.55,16,3,0,0.00
2013-4-9,80.6,61.7,45.9,38.6,26.9,-2.8,68,32,4,29.93,29.73,14,2,0,0.00
2013-4-10,91.9,70.5,50.7,37.6,5.2,-30.9,48,15,1,30.00,29.82,14,2,0,0.00
2013-4-11,83.8,66.2,47.1,51.9,40.0,26.0,81,44,14,29.88,29.63,7,0,0,0.00
2013-4-12,88.9,66.5,51.8,55.3,52.3,47.3,85,64,31,29.75,29.62,3,0,0,0.00
2013-4-13,72.9,60.0,53.6,57.2,52.4,47.6,86,77,55,29.81,29.68,0,0,0,0.00
2013-4-14,69.4,58.4,53.2,53.6,50.8,48.7,86,77,55,29.77,29.68,0,0,0,0.00
2013-4-15,66.6,57.6,52.0,52.1,49.2,44.5,84,74,54,29.77,29.70,0,0,0,0.00
2013-4-16,69.8,56.9,47.7,44.3,35.4,20.5,85,48,23,29.89,29.75,16,2,0,0.00
2013-4-17,75.2,62.1,49.1,25.7,11.3,-18.8,37,18,2,30.03,29.89,14,1,0,0.00
2013-4-18,79.7,66.3,54.7,23.3,-4.4,-34.5,29,9,1,30.13,29.97,18,5,0,0.01
2013-4-19,91.6,71.8,50.5,33.2,2.9,-28.7,38,13,1,30.08,29.86,17,1,0,0.00
2013-4-20,97.5,76.4,55.8,42.6,23.2,-20.6,43,20,1,29.88,29.73,17,2,0,0.00
2013-4-21,96.6,73.0,51.8,53.8,39.6,21.7,84,39,8,29.89,29.76,3,0,0,0.00
2013-4-22,86.5,66.4,54.7,56.8,52.8,44.0,98,68,26,29.88,29.73,5,0,0,0.00
2013-4-23,89.2,66.6,55.4,55.5,52.4,49.4,98,65,26,29.85,29.72,0,0,0,0.00
2013-4-24,62.4,58.1,55.4,56.1,53.6,48.1,98,85,72,29.88,29.78,0,0,0,0.00
2013-4-25,79.9,64.2,53.6,53.2,49.3,45.9,87,62,34,30.00,29.85,7,0,0,0.00
2013-4-26,88.7,66.9,46.9,52.4,49.3,44.7,98,59,28,30.05,29.94,1,0,0,0.00
2013-4-27,93.6,71.5,49.5,55.7,49.1,39.7,98,53,20,30.04,29.85,5,0,0,0.00
2013-4-28,97.9,71.9,51.1,57.6,53.9,39.5,98,61,15,29.90,29.67,0,0,0,0.00
2013-4-29,89.6,68.7,56.5,58.6,55.5,51.6,98,68,32,29.78,29.63,5,0,0,0.00
2013-4-30,75.6,63.0,56.5,57.1,54.8,52.7,98,77,50,29.78,29.69,0,0,0,0.00
2013-5-1,92.1,70.6,57.2,56.7,53.8,49.5,97,61,25,29.97,29.78,0,0,0,0.00
2013-5-2,89.8,75.4,51.6,54.5,-6.6,-32.8,98,24,1,30.04,29.89,35,9,0,0.06
2013-5-3,101.3,81.8,61.7,31.1,-16.8,-35.2,26,4,1,29.90,29.67,17,2,0,0.00
2013-5-4,82.8,66.6,51.4,55.6,46.8,28.9,82,51,28,29.70,29.58,5,0,0,0.00
2013-5-5,65.3,59.0,56.1,52.7,51.3,49.9,88,76,62,29.83,29.70,10,1,0,0.00
2013-5-6,70.0,61.1,55.4,56.9,51.3,45.9,98,72,46,29.88,29.78,10,0,0,0.39
2013-5-7,73.4,62.4,54.5,55.9,51.3,47.0,98,69,46,29.95,29.85,4,0,0,0.00
2013-5-8,81.0,63.5,53.6,54.5,49.7,44.5,98,63,35,29.98,29.93,8,0,0,0.00
2013-5-9,83.3,64.9,49.1,55.1,52.1,46.5,98,67,34,29.99,29.88,2,0,0,0.00
2013-5-10,91.2,72.0,54.3,60.2,55.6,50.4,98,62,27,29.97,29.85,8,0,0,0.00
2013-5-11,106.0,77.4,55.9,60.6,53.5,31.0,98,54,8,29.95,29.85,4,0,0,0.00
2013-5-12,107.6,82.9,59.9,60.3,47.6,-14.1,96,42,1,29.96,29.79,11,1,0,0.00
2013-5-13,108.9,85.8,64.4,58.4,38.9,1.1,69,27,2,29.86,29.75,12,1,0,0.00
2013-5-14,93.6,74.1,57.9,56.4,49.5,40.6,71,45,18,29.87,29.77,5,0,0,0.00
2013-5-15,86.2,69.0,52.9,58.1,53.7,48.3,85,61,37,29.92,29.80,7,0,0,0.00
2013-5-16,84.4,65.7,57.7,58.4,56.1,53.9,98,74,39,29.87,29.75,1,0,0,0.00
2013-5-17,80.8,67.1,57.9,57.4,55.1,51.9,85,67,43,29.88,29.78,4,0,0,0.00
2013-5-18,86.2,68.7,53.4,57.9,54.8,51.7,98,66,35,29.92,29.81,4,0,0,0.00
2013-5-19,93.7,71.6,51.4,59.0,52.1,37.5,98,58,17,29.86,29.73,6,0,0,0.00
2013-5-20,98.1,75.1,56.7,60.4,51.7,-18.2,98,54,1,29.83,29.73,5,0,0,0.00
2013-5-21,94.3,73.5,61.0,62.8,59.6,55.1,98,67,27,29.83,29.68,4,0,0,0.00
2013-5-22,81.7,68.8,59.9,60.7,56.5,48.1,98,69,43,29.72,29.62,6,0,0,0.00
2013-5-23,77.4,64.6,53.8,54.9,50.5,45.8,81,61,41,29.81,29.69,7,0,0,0.00
2013-5-24,82.8,64.3,49.5,55.8,51.3,45.9,98,66,31,29.86,29.78,6,0,0,0.00
2013-5-25,81.9,64.3,52.0,55.9,52.7,47.9,98,69,39,29.90,29.82,5,0,0,0.00
2013-5-26,84.0,65.8,51.8,57.3,53.2,47.9,98,67,36,29.93,29.84,7,0,0,0.00
2013-5-27,90.3,68.8,52.7,59.1,55.6,49.2,98,68,25,29.87,29.71,3,0,0,0.00
2013-5-28,88.9,71.7,56.5,59.8,55.0,47.2,98,62,30,29.75,29.59,13,1,0,0.00
2013-5-29,97.3,77.7,57.9,57.9,49.6,39.1,75,42,15,29.66,29.54,12,1,0,0.00
2013-5-30,92.1,74.7,58.1,62.0,58.8,55.9,98,62,33,29.74,29.61,1,0,0,0.00
2013-5-31,93.9,75.5,61.7,63.1,60.5,58.3,98,65,31,29.78,29.66,0,0,0,0.00
2013-6-1,108.9,78.3,58.1,63.7,58.2,10.6,98,62,3,29.73,29.59,0,0,0,0.00
2013-6-2,86.7,71.3,62.2,64.9,61.8,58.2,98,75,44,29.71,29.62,7,0,0,0.00
2013-6-3,87.8,68.8,60.4,60.9,57.7,54.9,98,71,33,29.79,29.67,0,0,0,0.00
2013-6-4,85.5,68.9,57.6,61.1,58.5,54.4,98,73,40,29.84,29.74,5,0,0,0.00
2013-6-5,90.5,68.8,57.0,60.4,58.2,55.3,98,74,32,29.89,29.75,9,0,0,0.00
2013-6-6,84.9,64.3,55.4,61.7,58.5,54.8,98,85,45,29.84,29.77,0,0,0,0.00
2013-6-8,87.4,75.2,61.5,63.0,61.2,59.3,98,65,42,29.78,29.68,4,0,0,0.00
2013-6-9,89.1,70.1,60.3,62.4,60.3,56.7,98,75,37,29.80,29.71,0,0,0,0.00
2013-6-10,87.4,70.6,59.5,60.0,56.3,53.8,98,65,34,29.83,29.75,3,0,0,0.00
2013-6-11,98.2,75.2,55.4,60.0,56.1,51.4,98,58,22,29.82,29.73,0,0,0,0.00
2013-6-12,89.2,70.2,60.6,63.6,60.7,57.1,98,76,36,29.92,29.79,0,0,0,0.00
2013-6-13,93.0,72.5,60.3,62.2,60.0,57.5,98,70,33,29.89,29.74,6,0,0,0.00
2013-6-14,91.6,71.5,57.0,61.1,57.1,43.4,98,66,25,29.80,29.68,0,0,0,0.00
2013-6-15,88.5,70.6,60.1,60.7,55.6,38.4,98,66,22,29.85,29.75,3,0,0,0.00
2013-6-16,92.3,72.5,56.8,59.9,56.5,48.2,98,64,24,29.92,29.78,9,0,0,0.00
2013-6-17,96.6,74.5,56.5,61.1,55.1,30.9,98,59,10,29.85,29.74,5,0,0,0.00
2013-6-18,96.8,74.4,58.3,62.4,57.3,53.4,98,61,25,29.79,29.67,8,0,0,0.00
2013-6-19,93.2,74.9,55.4,58.6,47.5,4.2,98,49,4,29.71,29.64,8,0,0,0.00
2013-6-20,94.1,76.8,58.1,54.3,47.9,25.5,70,39,15,29.74,29.65,8,0,0,0.00
2013-6-21,92.1,73.6,55.4,58.6,51.8,47.2,78,50,26,29.77,29.69,1,0,0,0.00
2013-6-22,91.6,73.9,56.5,61.1,56.2,48.6,84,57,32,29.78,29.66,3,0,0,0.00
2013-6-23,85.1,70.1,60.4,61.5,58.6,55.5,98,70,41,29.78,29.65,3,0,0,0.00
2013-6-24,72.3,65.8,60.8,61.4,59.4,56.8,98,81,66,29.82,29.71,0,0,0,0.00
2013-6-25,89.8,72.2,57.0,64.4,61.0,56.4,98,71,42,29.89,29.77,0,0,0,0.00
2013-6-26,102.4,81.3,61.7,64.7,62.0,58.7,98,57,26,29.88,29.78,6,0,0,0.00
2013-6-27,105.6,84.5,64.6,64.7,61.5,54.8,85,51,19,29.91,29.84,7,0,0,0.00
2013-6-28,106.9,86.7,65.5,63.4,60.3,57.0,79,46,22,29.87,29.74,2,0,0,0.00
2013-6-29,112.8,89.6,68.2,65.0,57.5,46.6,78,41,13,29.76,29.59,4,0,0,0.00
2013-6-30,108.9,85.5,69.4,67.3,62.7,47.2,81,52,13,29.68,29.58,3,0,0,0.00
2013-7-1,102.0,84.5,66.9,65.1,59.7,45.0,85,50,16,29.76,29.66,2,0,0,0.00
2013-7-2,100.9,83.3,67.3,65.2,60.7,54.8,80,51,22,29.86,29.76,6,0,0,0.00
2013-7-3,103.1,81.2,66.0,66.8,59.8,50.1,98,54,19,29.81,29.67,11,0,0,0.00
2013-7-4,102.4,80.8,65.1,65.9,57.4,39.5,98,53,14,29.73,29.61,3,0,0,0.00
2013-7-5,95.2,76.6,63.5,66.1,60.2,42.6,98,64,18,29.76,29.63,2,0,0,0.00
2013-7-6,98.2,75.8,64.0,66.3,62.9,56.2,98,70,29,29.72,29.61,0,0,0,0.00
2013-7-7,103.1,79.3,64.2,66.7,58.2,22.0,98,59,7,29.74,29.61,9,0,0,0.00
2013-7-8,103.8,79.6,60.3,64.1,52.7,30.8,77,49,9,29.80,29.72,9,0,0,0.00
2013-7-9,103.1,84.3,63.9,63.2,55.2,47.0,72,42,16,29.87,29.77,6,0,0,0.00
2013-7-10,88.3,76.6,68.5,64.6,60.9,57.4,74,60,39,29.89,29.78,3,0,0,0.00
2013-7-11,82.2,73.4,67.8,66.1,63.3,59.2,81,71,57,29.88,29.77,0,0,0,0.00
2013-7-12,96.1,78.1,65.1,68.4,59.2,45.7,73,54,30,29.83,29.73,1,0,0,0.00
2013-7-13,100.9,79.2,59.9,62.0,56.1,48.2,67,48,25,29.85,29.73,6,0,0,0.00
2013-7-14,106.7,80.6,60.8,63.5,56.0,46.8,66,47,20,29.83,29.69,1,0,0,0.00
2013-7-15,102.6,78.5,62.2,61.9,53.7,43.8,67,47,18,29.76,29.65,8,1,0,0.00
2013-7-16,98.6,76.6,54.5,56.7,44.6,15.9,71,40,5,29.88,29.74,6,0,0,0.00
2013-7-17,100.4,78.3,55.8,51.5,33.6,-18.1,60,30,1,29.93,29.82,15,1,0,0.00
2013-7-18,100.9,78.1,56.1,58.1,49.8,42.3,68,41,16,29.89,29.74,6,0,0,0.00
2013-7-19,98.8,78.7,58.6,59.9,54.2,48.8,70,48,21,29.82,29.68,1,0,0,0.00
2013-7-20,98.4,74.4,62.1,67.7,59.0,51.4,70,61,33,29.80,29.65,2,0,0,0.00
2013-7-21,83.5,73.7,66.9,66.3,61.7,57.2,71,66,54,29.82,29.69,0,0,0,0.00
2013-7-22,94.8,79.5,67.8,67.3,61.6,57.3,71,57,34,29.87,29.77,5,0,0,0.00
2013-7-23,99.1,77.8,65.1,64.0,60.0,56.2,73,56,32,29.93,29.80,5,0,0,0.00
2013-7-24,97.0,78.0,62.4,64.5,59.4,53.8,74,56,31,29.87,29.75,8,0,0,0.00
2013-7-25,98.2,79.0,61.7,63.6,59.8,54.4,77,55,31,29.90,29.78,1,0,0,0.00
2013-7-26,95.7,77.9,67.1,66.2,62.4,59.1,76,61,36,30.01,29.84,0,0,0,0.00
2013-7-27,96.6,78.9,64.4,64.5,61.2,57.7,79,58,33,29.92,29.75,0,0,0,0.00
2013-7-28,90.9,71.9,61.5,64.4,58.5,50.9,83,66,30,29.84,29.73,7,0,0,0.00
2013-7-29,92.8,73.1,61.0,61.3,56.6,48.7,83,61,23,29.91,29.79,1,0,0,0.00
2013-7-30,93.7,73.9,57.6,62.3,54.5,36.7,86,58,15,30.01,29.88,0,0,0,0.00
2013-7-31,91.6,69.9,56.7,61.5,57.9,52.6,98,69,33,30.00,29.86,0,0,0,0.00
2013-8-1,91.8,71.0,58.6,61.6,57.9,53.8,98,67,34,29.92,29.77,1,0,0,0.00
2013-8-2,93.7,72.6,56.3,61.6,58.1,53.0,98,64,33,29.87,29.75,6,0,0,0.00
2013-8-3,97.5,74.1,59.0,62.8,59.1,53.9,98,65,26,29.91,29.79,0,0,0,0.00
2013-8-4,95.7,74.2,55.8,63.2,56.2,45.4,98,60,18,29.90,29.79,7,0,0,0.00
2013-8-5,100.0,74.9,52.5,62.0,50.4,35.1,85,51,11,29.89,29.79,4,0,0,0.00
2013-8-6,95.2,72.9,54.9,60.4,54.5,46.3,86,57,21,29.92,29.83,1,0,0,0.00
2013-8-7,96.4,71.9,53.2,60.4,54.4,48.2,84,59,27,29.96,29.83,0,0,0,0.00
2013-8-8,90.7,71.5,54.5,60.6,55.2,49.8,86,61,29,29.88,29.77,3,0,0,0.00
2013-8-9,91.4,71.5,55.4,60.8,55.4,48.0,88,61,23,29.84,29.77,3,0,0,0.00
2013-8-10,91.9,71.6,55.9,61.2,56.6,50.9,86,63,32,29.92,29.82,0,0,0,0.00
2013-8-11,94.5,74.5,54.7,60.2,56.9,50.3,85,59,29,29.88,29.76,5,0,0,0.00
2013-8-12,97.9,74.4,56.3,62.6,58.4,51.8,85,62,29,29.86,29.76,2,0,0,0.00
2013-8-13,100.4,77.3,59.0,63.5,59.3,54.4,85,59,25,29.86,29.73,4,0,0,0.00
2013-8-14,104.7,80.2,59.0,64.5,55.6,36.9,85,53,13,29.82,29.69,4,0,0,0.00
2013-8-15,65.1,64.1,63.3,60.1,59.4,58.7,85,85,84,29.79,29.78,0,0,0,0.00
2013-8-16,103.6,88.5,73.0,58.1,49.6,41.2,55,30,15,29.84,29.77,4,0,0,0.00
2013-8-17,106.5,82.3,62.4,60.0,49.7,21.5,72,39,5,29.86,29.69,5,0,0,0.00
2013-8-18,103.8,79.8,58.6,62.9,54.1,27.0,85,50,7,29.79,29.66,1,0,0,0.00
2013-8-19,98.4,79.1,64.6,65.7,61.4,49.7,86,59,25,29.84,29.70,0,0,0,0.00
2013-8-20,102.4,79.0,59.0,64.1,57.2,43.2,85,53,16,29.83,29.70,0,0,0,0.00
2013-8-21,106.5,81.0,60.1,59.6,48.6,-16.9,84,46,1,29.82,29.69,5,0,0,0.00
2013-8-22,105.3,83.5,61.0,58.0,42.0,-16.0,71,35,1,29.81,29.67,4,0,0,0.00
2013-8-23,104.0,80.5,58.3,54.5,45.3,-15.0,70,37,1,29.76,29.60,5,0,0,0.00
2013-8-24,102.2,79.4,56.1,52.6,38.4,-17.6,71,33,1,29.76,29.62,5,0,0,0.00
2013-8-25,103.6,79.2,55.9,58.1,42.6,-1.6,71,33,3,29.81,29.68,6,0,0,0.00
2013-8-26,101.8,81.6,61.5,64.5,50.3,35.2,61,35,13,29.81,29.70,7,0,0,0.00
2013-8-27,102.4,83.2,71.4,64.4,58.4,47.5,74,45,28,29.74,29.64,8,0,0,0.00
2013-8-28,105.1,84.2,67.1,64.7,56.1,37.3,82,43,20,29.78,29.66,12,0,0,0.00
2013-8-29,110.5,86.2,66.7,61.3,53.0,40.4,78,39,10,29.84,29.75,4,0,0,0.00
2013-8-30,101.1,86.3,72.3,69.7,63.6,52.1,70,48,30,29.87,29.79,8,0,0,0.00
2013-8-31,101.3,85.8,74.7,72.3,70.2,68.8,82,62,36,29.86,29.75,14,1,0,0.00
2013-9-1,98.2,83.1,73.2,71.5,69.2,66.9,83,65,40,29.83,29.72,8,0,0,0.00
2013-9-2,103.6,83.0,68.5,70.6,66.6,63.8,85,61,32,29.82,29.69,7,0,0,0.00
2013-9-3,107.8,85.3,68.7,67.1,62.0,52.2,82,50,19,29.80,29.70,10,1,0,0.00
2013-9-4,109.4,86.1,67.8,63.1,57.2,45.4,74,43,12,29.81,29.71,9,0,0,0.00
2013-9-5,107.4,88.4,68.5,59.9,49.5,32.4,65,32,11,29.79,29.69,10,1,0,0.00
2013-9-6,110.3,87.1,67.3,59.2,47.1,32.3,66,32,7,29.78,29.66,15,1,0,0.00
2013-9-7,109.2,85.5,67.6,57.6,42.3,4.7,58,28,4,29.77,29.66,11,1,0,0.00
2013-9-8,103.5,81.6,64.2,58.8,48.2,33.9,66,37,10,29.75,29.62,8,0,0,0.00
2013-9-9,100.0,77.8,64.9,62.0,55.6,45.6,75,51,17,29.71,29.59,7,0,0,0.00
2013-9-10,92.7,72.7,60.6,63.0,57.2,51.5,86,63,29,29.82,29.67,0,0,0,0.00
2013-9-11,92.7,72.7,57.2,62.6,58.6,52.4,84,65,34,29.89,29.78,0,0,0,0.00
2013-9-12,102.4,76.3,56.1,63.2,52.6,25.8,84,52,8,29.84,29.69,5,0,0,0.00
2013-9-13,100.9,79.8,59.0,56.4,51.3,41.9,76,43,15,29.71,29.53,4,0,0,0.00
2013-9-14,107.6,82.7,61.9,58.1,51.9,43.0,71,40,12,29.63,29.51,5,0,0,0.00
2013-9-15,109.2,81.3,61.7,60.9,55.1,39.0,79,47,10,29.66,29.57,8,0,0,0.00
2013-9-16,106.5,80.8,60.3,59.4,48.1,9.8,79,41,3,29.73,29.60,5,0,0,0.00
2013-9-17,94.8,74.5,56.1,60.6,53.2,36.4,83,53,15,29.70,29.57,4,0,0,0.00
2013-9-18,90.1,72.0,59.9,62.3,58.7,54.7,85,66,35,29.70,29.59,3,0,0,0.00
2013-9-19,100.8,72.8,56.7,63.8,58.7,51.6,85,65,27,29.74,29.59,0,0,0,0.00
2013-9-20,81.1,67.7,62.6,64.8,61.3,58.7,98,81,55,29.78,29.68,0,0,0,0.00
2013-9-21,81.5,67.6,57.4,61.7,58.9,54.9,98,76,45,29.83,29.67,7,0,0,0.00
2013-9-22,90.0,71.2,55.2,56.6,45.6,29.6,98,46,12,29.76,29.64,14,2,0,0.00
2013-9-23,100.9,77.2,55.8,51.4,36.9,-3.3,80,34,2,29.78,29.69,10,0,0,0.00
2013-9-24,99.9,75.3,55.0,49.4,39.1,20.8,65,34,6,29.82,29.70,6,0,0,0.00
2013-9-25,80.1,67.4,54.1,61.7,57.1,49.6,98,72,47,29.73,29.57,5,0,0,0.00
2013-9-26,79.3,65.6,54.7,56.1,43.2,8.9,87,50,7,29.78,29.60,10,1,0,0.00
2013-9-27,85.3,70.0,53.2,45.1,22.0,-27.0,71,23,1,29.90,29.77,17,4,0,0.00
2013-9-28,96.3,71.6,52.0,43.0,19.1,-24.2,56,25,1,29.95,29.83,10,0,0,0.00
2013-9-29,95.7,71.4,50.0,43.0,21.2,-24.2,60,26,1,29.98,29.83,2,0,0,0.00
2013-9-30,95.2,73.2,51.6,56.5,42.4,22.3,79,43,8,29.89,29.71,4,0,0,0.00
2013-10-1,90.5,72.0,53.6,62.9,53.1,45.7,98,57,23,29.83,29.73,0,0,0,0.00
2013-10-2,87.4,68.6,59.0,62.9,60.5,56.8,98,79,38,29.90,29.73,2,0,0,0.00
2013-10-3,84.2,68.5,57.9,64.2,59.1,55.4,98,76,40,29.82,29.67,6,0,0,0.00
2013-10-4,81.9,71.3,56.1,57.0,4.8,-31.7,98,25,1,29.96,29.76,25,8,0,0.00
2013-10-5,85.3,77.9,71.8,12.3,-11.8,-31.0,10,3,1,30.05,29.93,32,11,0,0.03
2013-10-6,101.1,79.0,57.7,37.6,-1.0,-31.5,37,10,1,30.00,29.84,11,1,0,0.00
2013-10-7,95.0,70.9,53.4,45.8,21.0,-25.2,53,27,1,29.89,29.76,5,0,0,0.00
2013-10-8,81.7,63.7,48.0,59.0,49.8,36.9,98,63,37,29.82,29.69,1,0,0,0.00
2013-10-9,65.8,57.5,50.9,57.1,52.0,43.5,98,83,52,29.71,29.57,9,0,0,0.03
2013-10-10,72.7,57.3,46.0,52.0,42.0,-48.3,98,65,1,29.91,29.67,1,0,0,0.01
2013-10-11,86.5,62.5,46.4,54.8,43.4,-47.4,82,56,1,29.94,29.82,2,0,0,0.00
2013-10-12,88.7,63.6,45.7,55.7,46.3,34.5,79,58,19,29.87,29.74,3,0,0,0.00
2013-10-13,76.3,61.9,50.4,55.9,50.0,34.8,81,67,42,29.91,29.81,0,0,0,0.00
2013-10-14,83.7,68.8,50.5,51.2,17.9,-46.4,74,21,1,29.91,29.79,19,4,0,0.00
2013-10-15,86.0,75.6,60.3,36.5,22.4,9.7,40,15,6,29.88,29.75,20,4,0,0.00
2013-10-16,87.4,72.8,57.6,37.3,10.9,-26.5,44,14,1,29.97,29.85,23,4,0,0.00
2013-10-17,92.3,68.0,51.1,42.1,26.8,-23.5,57,30,1,29.93,29.78,14,0,0,0.00
2013-10-18,95.9,69.5,49.1,54.8,34.8,-21.3,75,41,1,29.90,29.78,0,0,0,0.00
2013-10-19,99.9,70.1,50.0,44.9,26.5,-23.2,64,34,1,29.92,29.81,7,0,0,0.00
2013-10-20,90.9,66.9,47.7,49.1,38.3,13.1,66,42,7,29.87,29.73,0,0,0,0.00
2013-10-21,92.1,66.6,46.4,56.8,44.3,30.1,80,53,13,29.88,29.75,0,0,0,0.00
2013-10-22,95.2,68.0,47.8,58.5,43.6,8.7,81,52,4,29.87,29.74,0,0,0,0.00
2013-10-23,83.5,63.4,50.5,58.4,39.4,-43.0,76,54,1,29.84,29.74,0,0,0,0.00
2013-10-24,82.4,64.2,53.6,57.9,51.4,32.2,79,64,41,29.93,29.81,0,0,0,0.00
2013-10-25,88.0,65.0,51.3,59.1,28.5,-46.2,81,41,2,30.02,29.88,0,0,0,0.00
2013-10-26,99.1,68.6,48.9,56.4,43.5,20.6,76,47,6,29.98,29.83,0,0,0,0.00
2013-10-27,86.5,65.4,49.6,53.9,45.2,36.7,75,51,22,29.86,29.66,0,0,0,0.00
2013-10-28,68.9,58.2,51.8,52.6,47.1,40.1,78,68,35,29.81,29.66,6,0,0,0.00
2013-10-29,70.5,56.9,48.0,52.5,23.9,-47.7,78,47,1,29.89,29.80,2,0,0,0.03
2013-10-30,81.0,58.2,44.1,50.0,36.5,-13.8,77,48,6,29.96,29.84,3,0,0,0.00
2013-10-31,86.7,63.0,42.6,46.0,32.4,17.2,77,41,9,30.00,29.86,10,1,0,0.00
2013-11-1,88.5,68.9,47.1,41.1,23.5,-3.3,66,28,3,30.01,29.82,9,1,0,0.00
2013-11-2,91.4,65.9,48.4,47.4,33.3,-0.1,74,39,3,29.90,29.74,5,0,0,0.00
2013-11-3,78.4,63.2,54.9,57.2,51.2,38.4,79,66,41,29.81,29.69,0,0,0,0.00
2013-11-4,80.2,61.4,50.4,54.5,46.4,34.2,77,60,30,29.84,29.67,3,0,0,0.00
2013-11-5,72.1,65.4,55.8,33.9,-2.9,-37.4,42,13,1,30.04,29.83,24,8,0,0.00
2013-11-6,79.3,71.3,63.9,6.3,-25.9,-37.1,10,1,1,30.10,30.01,26,8,0,0.00
2013-11-7,93.6,67.9,52.0,36.1,15.3,-26.1,49,22,1,30.03,29.88,3,0,0,0.00
2013-11-8,88.5,70.9,49.8,45.2,28.6,-13.2,78,34,2,29.93,29.80,0,0,0,0.00
2013-11-9,84.6,61.6,43.9,49.2,31.6,-26.6,79,44,1,29.97,29.87,0,0,0,0.00
2013-11-10,89.1,62.9,45.9,53.4,32.1,-25.0,77,47,2,30.03,29.90,0,0,0,0.00
2013-11-11,91.8,64.2,45.0,46.7,33.2,-23.9,80,46,1,30.02,29.91,5,0,0,0.00
2013-11-12,87.8,67.7,51.3,47.3,33.0,-13.1,67,37,2,30.07,29.96,0,0,0,0.00
2013-11-13,90.1,76.9,58.3,34.5,-2.0,-28.6,40,10,1,29.97,29.79,21,5,0,0.00
2013-11-14,95.9,78.4,57.9,41.8,10.5,-22.1,52,14,1,29.84,29.64,14,1,0,0.00
2013-11-15,71.4,61.1,52.3,58.3,51.9,41.1,81,72,54,29.65,29.54,0,0,0,0.00
2013-11-16,63.1,58.1,52.9,56.1,49.3,41.1,80,73,57,29.83,29.62,0,0,0,0.00
2013-11-17,75.6,58.9,49.1,54.2,45.3,26.8,78,62,41,29.98,29.83,0,0,0,0.00
2013-11-18,76.6,58.3,46.8,56.4,44.7,26.0,80,62,43,30.05,29.92,0,0,0,0.00
2013-11-19,73.9,58.7,48.2,56.0,47.6,31.8,82,67,47,29.98,29.83,0,0,0,0.00
2013-11-20,67.1,57.9,51.1,57.8,43.3,-41.8,84,70,1,29.86,29.76,0,0,0,0.18
2013-11-21,70.9,59.9,54.0,62.4,12.9,-41.2,98,47,1,29.78,29.70,18,1,0,0.54
2013-11-22,55.8,52.6,51.1,46.4,41.2,40.0,76,65,59,29.87,29.75,34,18,0,0.61
2013-11-23,59.0,54.6,51.3,43.2,41.4,39.9,68,61,52,30.00,29.86,26,9,0,0.01
2013-11-24,70.9,59.2,52.3,43.7,42.3,38.9,70,55,35,30.08,29.98,11,2,0,0.00
2013-11-25,81.0,62.4,49.8,45.8,40.0,28.5,79,48,17,30.13,30.03,15,1,0,0.00
2013-11-26,84.6,61.6,44.4,47.1,40.0,24.3,84,53,11,30.10,29.94,4,0,0,0.00
2013-11-27,80.2,59.6,46.9,46.5,41.6,31.7,82,58,18,29.95,29.74,0,0,0,0.00
2013-11-28,71.8,56.6,45.3,49.0,43.6,39.5,82,65,32,29.94,29.79,6,0,0,0.00
2013-11-29,66.6,56.3,49.8,56.0,49.0,37.7,84,77,63,30.08,29.94,0,0,0,0.05
2013-11-30,75.0,62.0,45.3,51.4,40.0,35.8,83,49,26,30.09,29.97,14,2,0,0.00
2013-12-1,77.0,68.3,52.5,37.2,30.2,15.2,53,26,10,30.12,30.00,26,6,0,0.00
2013-12-2,82.4,61.0,46.8,40.4,32.5,16.6,65,40,9,30.03,29.80,0,0,0,0.00
2013-12-3,69.8,54.4,41.4,54.2,45.1,34.2,79,72,44,29.80,29.62,2,0,0,0.00
2013-12-4,62.2,49.9,37.2,41.1,21.6,10.1,79,36,14,29.85,29.67,18,2,0,0.00
2013-12-5,66.2,46.4,32.5,35.3,29.4,18.2,79,55,24,30.00,29.85,0,0,0,0.00
2013-12-6,60.6,47.0,32.5,41.1,33.2,-11.0,80,61,11,30.06,29.97,0,0,0,0.00
2013-12-7,56.1,44.1,34.9,48.3,24.5,-4.4,78,49,12,30.00,29.87,8,0,0,0.25
2013-12-8,61.3,44.7,29.5,33.7,23.8,12.5,80,46,29,30.10,29.95,14,1,0,0.00
2013-12-9,52.7,48.4,43.7,15.1,-24.9,-48.1,30,9,1,30.20,30.08,40,19,0,1.72
2013-12-10,64.8,51.4,36.5,19.3,-26.7,-48.5,47,9,1,30.15,30.00,27,7,0,0.05
2013-12-11,68.7,52.3,32.0,20.0,6.3,-23.0,60,24,2,30.08,30.00,18,2,0,0.00
2013-12-12,79.0,57.1,42.4,38.0,18.6,-31.8,81,33,1,30.12,30.00,0,0,0,0.00
2013-12-13,76.6,52.7,36.3,44.3,20.2,-55.4,79,41,2,30.13,30.01,3,0,0,0.00
2013-12-14,71.1,66.2,60.8,20.8,11.0,-2.1,20,12,6,30.20,30.09,27,13,0,0.05
2013-12-15,76.5,68.2,53.8,30.2,11.1,-4.7,40,12,4,30.14,29.99,25,10,0,0.00
2013-12-16,84.6,67.8,52.2,33.6,13.5,-27.1,42,20,1,30.04,29.93,22,1,0,0.00
2013-12-17,92.1,69.4,54.0,38.2,20.8,-25.8,46,24,1,30.03,29.88,4,0,0,0.00
2013-12-18,77.2,62.4,52.3,54.6,40.9,26.9,80,46,30,29.90,29.71,0,0,0,0.00
2013-12-19,55.6,50.3,43.7,48.7,36.3,8.6,80,62,18,29.72,29.59,1,0,0,0.15
2013-12-20,64.0,53.2,41.4,43.6,35.9,21.7,80,56,21,29.85,29.68,21,2,0,0.00
2013-12-21,69.8,49.8,37.6,50.6,27.4,-53.3,79,52,1,29.99,29.82,0,0,0,0.00
2013-12-22,79.7,56.3,41.5,53.0,20.4,-52.2,81,39,1,30.16,29.99,0,0,0,0.00
2013-12-23,74.1,61.8,44.4,43.0,35.9,32.4,81,43,23,30.22,30.09,24,6,0,0.00
2013-12-24,80.2,70.2,57.6,36.9,29.9,16.3,43,24,9,30.10,29.97,21,7,0,0.00
2013-12-25,74.7,70.5,68.0,28.3,2.4,-36.0,21,10,2,30.10,29.99,38,16,0,0.21
2013-12-26,75.2,71.1,66.6,-24.0,-33.5,-36.9,2,0,1,30.08,29.95,32,14,0,0.01
2013-12-27,86.9,68.0,54.5,28.3,-10.9,-38.7,34,8,1,30.07,29.90,8,0,0,0.00
2013-12-28,80.8,60.5,44.2,42.9,24.1,-15.9,79,35,2,29.92,29.80,0,0,0,0.00
2013-12-29,75.4,65.5,42.4,37.7,-16.3,-38.6,78,8,2,30.04,29.89,22,5,0,0.00
2013-12-30,84.2,59.2,41.4,27.3,3.5,-33.1,43,19,1,30.17,30.04,0,0,0,0.00
2013-12-31,81.1,56.4,39.4,31.4,18.2,-29.0,59,32,1,30.10,29.94,0,0,0,0.00
2014-1-1,81.7,60.0,39.2,36.4,18.1,-16.3,80,34,2,30.03,29.90,12,1,0,0.00
2014-1-2,84.9,67.3,51.1,33.9,20.0,-12.8,51,21,2,30.02,29.85,6,0,0,0.00